Time;durP1;ratioP1;P1;durP2;ratioP2;P2;SDS_P1;SDS_P2;PMS_P1;PMS_P2;Temp;Humidity;BMP_temperature;BMP_pressure;BME280_temperature;BME280_humidity;BME280_pressure;Samples;Min_cycle;Max_cycle;Signal;HPM_P1;HPM_P2
2022/08/18 00:01:04;;;;;;;4.30;4.00;;;;;;;23.75;71.65;99755.63;4986212;28;20512;-53
2022/08/18 00:03:31;;;;;;;5.27;4.87;;;;;;;23.57;73.31;99758.19;4964686;28;20490;-53
2022/08/18 00:06:18;;;;;;;5.10;4.60;;;;;;;23.77;72.33;99758.19;4974809;28;20465;-52
2022/08/18 00:08:45;;;;;;;5.63;5.20;;;;;;;24.13;71.46;99752.09;4980735;28;20835;-53
2022/08/18 00:11:11;;;;;;;4.20;3.90;;;;;;;24.36;70.48;99747.22;4959866;28;20454;-52
2022/08/18 00:13:37;;;;;;;4.90;4.50;;;;;;;24.06;71.57;99752.78;4973108;28;20458;-52
2022/08/18 00:16:04;;;;;;;9.07;5.60;;;;;;;24.11;70.91;99756.78;4967681;28;20471;-52
2022/08/18 00:18:31;;;;;;;8.77;5.37;;;;;;;23.82;72.30;99761.34;4965637;28;20486;-52
2022/08/18 00:20:57;;;;;;;11.50;4.87;;;;;;;23.63;73.66;99754.03;4976239;28;20461;-52
2022/08/18 00:23:23;;;;;;;21.73;5.50;;;;;;;23.51;74.32;99750.56;4964290;28;20461;-53
2022/08/18 00:25:51;;;;;;;5.13;4.73;;;;;;;23.19;74.88;99756.19;4975512;28;20529;-53
2022/08/18 00:28:18;;;;;;;4.27;3.97;;;;;;;23.02;76.10;99754.09;4976468;28;20474;-52
2022/08/18 00:30:49;;;;;;;4.53;4.23;;;;;;;23.00;76.07;99753.38;4963660;28;20512;-53
2022/08/18 00:33:20;;;;;;;4.50;4.27;;;;;;;23.01;76.17;99753.22;4963358;28;20448;-53
2022/08/18 00:35:46;;;;;;;4.90;3.40;;;;;;;22.96;76.58;99750.09;4975490;28;21039;-52
2022/08/18 00:38:13;;;;;;;5.53;5.07;;;;;;;22.99;76.37;99757.94;4968093;28;20861;-52
2022/08/18 00:40:53;;;;;;;5.33;5.00;;;;;;;22.99;76.70;99757.94;4967133;28;20924;-51
2022/08/18 00:43:32;;;;;;;4.30;4.00;;;;;;;22.86;77.11;99753.75;4972923;28;20454;-53
2022/08/18 00:45:59;;;;;;;4.80;4.50;;;;;;;22.71;77.72;99754.06;4976070;28;20983;-53
2022/08/18 00:48:27;;;;;;;15.10;4.83;;;;;;;22.79;77.36;99761.53;4962725;28;20557;-52
2022/08/18 00:51:00;;;;;;;5.47;5.10;;;;;;;22.82;77.58;99758.56;4975790;28;20455;-53
2022/08/18 00:53:33;;;;;;;5.37;4.97;;;;;;;22.77;78.21;99761.69;4969968;28;20447;-52
2022/08/18 00:56:07;;;;;;;5.37;5.07;;;;;;;22.71;78.04;99774.88;4969904;28;20447;-52
2022/08/18 00:58:42;;;;;;;5.37;4.97;;;;;;;22.62;77.94;99778.41;4975772;28;20470;-53
2022/08/18 01:01:11;;;;;;;4.63;4.23;;;;;;;22.56;79.05;99785.22;4988600;28;20467;-52
2022/08/18 01:03:41;;;;;;;4.87;4.67;;;;;;;22.62;78.57;99794.69;4966207;28;21076;-52
2022/08/18 01:06:20;;;;;;;6.83;5.77;;;;;;;22.89;77.90;99807.69;4974589;28;20970;-53
2022/08/18 01:08:47;;;;;;;5.20;4.70;;;;;;;22.98;77.89;99802.31;4983557;28;20516;-52
2022/08/18 01:11:13;;;;;;;6.27;5.67;;;;;;;23.08;77.60;99804.22;4962634;28;20879;-52
2022/08/18 01:13:41;;;;;;;5.83;5.43;;;;;;;23.18;76.96;99806.00;4975374;28;20451;-52
2022/08/18 01:21:50;;;;;;;6.37;5.83;;;;;;;23.31;76.96;99803.06;4975373;28;20451;-52
2022/08/18 01:24:20;;;;;;;9.10;5.00;;;;;;;23.32;76.95;99805.63;4962477;28;20486;-52
2022/08/18 01:26:51;;;;;;;5.50;5.00;;;;;;;23.40;75.89;99794.06;4975447;28;20446;-52
2022/08/18 01:29:18;;;;;;;5.37;4.90;;;;;;;23.66;75.43;99788.19;4962242;28;20474;-52
2022/08/18 01:31:53;;;;;;;4.20;3.90;;;;;;;23.35;76.33;99789.06;4962085;28;20510;-52
2022/08/18 01:34:24;;;;;;;13.83;5.50;;;;;;;23.50;76.00;99789.53;4975076;28;20936;-53
2022/08/18 01:36:51;;;;;;;5.73;5.27;;;;;;;23.18;76.67;99791.59;4972920;28;20974;-53
2022/08/18 01:39:19;;;;;;;5.87;5.57;;;;;;;23.02;77.80;99787.50;4964472;28;20562;-52
2022/08/18 01:42:05;;;;;;;4.30;4.10;;;;;;;22.97;78.13;99797.03;4974850;28;20455;-52
2022/08/18 01:44:32;;;;;;;31.97;6.17;;;;;;;23.04;77.34;99790.09;4963340;28;20869;-53
2022/08/18 01:46:59;;;;;;;4.67;4.33;;;;;;;22.80;78.85;99792.22;4973472;28;20512;-52
2022/08/18 01:49:27;;;;;;;6.13;5.77;;;;;;;22.81;78.66;99783.94;4975037;28;20841;-52
2022/08/18 01:51:54;;;;;;;9.03;5.70;;;;;;;22.90;77.84;99776.91;4961726;28;20931;-52
2022/08/18 01:54:21;;;;;;;6.10;5.30;;;;;;;23.00;77.69;99783.19;4974647;28;20446;-53
2022/08/18 01:56:48;;;;;;;6.53;5.47;;;;;;;22.96;77.90;99785.34;4968941;28;20455;-53
2022/08/18 01:59:15;;;;;;;11.30;6.13;;;;;;;22.95;78.46;99778.19;4967847;28;20497;-52
2022/08/18 02:01:44;;;;;;;5.77;3.73;;;;;;;22.91;78.06;99776.75;4986787;28;20558;-52
2022/08/18 02:04:23;;;;;;;4.90;4.70;;;;;;;23.22;77.58;99766.75;4961629;28;20498;-52
2022/08/18 02:07:06;;;;;;;8.00;6.23;;;;;;;23.46;75.85;99760.13;4974384;28;20828;-52
2022/08/18 02:09:32;;;;;;;5.43;5.00;;;;;;;23.61;76.07;99756.91;4970524;28;20455;-52
2022/08/18 02:12:00;;;;;;;9.27;5.97;;;;;;;23.47;75.67;99762.69;4966799;28;20976;-53
2022/08/18 02:14:26;;;;;;;12.03;5.17;;;;;;;23.21;76.94;99759.63;4974509;28;20450;-53
2022/08/18 02:16:57;;;;;;;9.93;5.50;;;;;;;23.34;76.61;99762.94;4962419;28;20451;-53
2022/08/18 02:19:35;;;;;;;5.97;5.67;;;;;;;23.72;75.16;99741.50;4961675;28;20845;-53
2022/08/18 02:22:03;;;;;;;8.83;6.03;;;;;;;23.94;73.96;99754.78;4961288;28;20941;-53
2022/08/18 02:24:30;;;;;;;6.80;6.20;;;;;;;23.49;75.31;99757.13;4974016;28;20555;-52
2022/08/18 02:26:56;;;;;;;9.30;4.93;;;;;;;23.60;75.09;99762.47;4972566;28;20455;-53
2022/08/18 02:29:23;;;;;;;5.07;4.67;;;;;;;23.70;74.18;99767.88;4962972;28;20474;-52
2022/08/18 02:31:49;;;;;;;5.83;5.53;;;;;;;24.04;73.82;99771.94;4973948;28;20823;-52
2022/08/18 02:34:16;;;;;;;5.77;5.27;;;;;;;24.05;73.04;99780.94;4965539;28;20451;-52
2022/08/18 02:36:43;;;;;;;6.00;5.60;;;;;;;24.11;73.18;99780.38;4970336;28;20828;-52
2022/08/18 02:39:10;;;;;;;3.73;3.30;;;;;;;23.98;73.67;99779.78;4963191;28;20474;-53
2022/08/18 02:41:36;;;;;;;5.90;5.40;;;;;;;23.87;73.69;99776.22;4973077;28;20952;-52
2022/08/18 02:44:06;;;;;;;5.40;5.03;;;;;;;24.34;72.27;99789.97;4965033;28;20461;-52
2022/08/18 02:46:33;;;;;;;4.70;4.37;;;;;;;23.91;73.99;99780.38;4970357;28;20458;-52
2022/08/18 02:49:00;;;;;;;6.33;5.80;;;;;;;23.89;73.43;99785.09;4973689;28;20470;-53
2022/08/18 02:51:27;;;;;;;5.60;5.13;;;;;;;24.04;74.24;99779.22;4960890;28;20518;-52
2022/08/18 02:53:53;;;;;;;5.97;5.47;;;;;;;24.05;73.91;99772.81;4973659;28;20455;-53
2022/08/18 02:56:26;;;;;;;5.37;4.97;;;;;;;23.88;74.17;99788.78;4970211;28;20506;-52
2022/08/18 02:59:10;;;;;;;6.03;5.50;;;;;;;23.66;74.85;99785.47;4967218;28;20475;-53
2022/08/18 03:01:40;;;;;;;8.97;6.57;;;;;;;23.37;77.03;99786.22;4986702;28;20446;-52
2022/08/18 03:04:09;;;;;;;12.63;6.07;;;;;;;23.71;75.72;99789.50;4960532;28;20457;-53
2022/08/18 03:06:37;;;;;;;5.33;4.60;;;;;;;23.53;76.52;99788.41;4979471;28;20472;-53
2022/08/18 03:09:05;;;;;;;5.40;5.07;;;;;;;23.31;77.90;99784.94;4978227;28;20480;-52
2022/08/18 03:11:32;;;;;;;6.60;6.17;;;;;;;23.48;77.02;99787.97;4962138;28;20464;-53
2022/08/18 03:14:00;;;;;;;5.87;5.27;;;;;;;23.18;79.01;99780.72;4973392;28;20914;-53
2022/08/18 03:16:31;;;;;;;8.07;6.13;;;;;;;23.13;79.44;99783.84;4965190;28;20459;-52
2022/08/18 03:18:59;;;;;;;5.73;5.40;;;;;;;23.10;79.43;99783.25;4969039;28;21014;-53
2022/08/18 03:21:28;;;;;;;9.33;5.70;;;;;;;23.33;79.07;99782.06;4973580;28;20546;-52
2022/08/18 03:23:55;;;;;;;8.33;5.50;;;;;;;23.54;77.77;99787.41;4960353;28;20512;-52
2022/08/18 03:26:28;;;;;;;8.23;6.07;;;;;;;23.77;76.76;99774.50;4973419;28;20446;-53
2022/08/18 03:28:56;;;;;;;6.40;5.97;;;;;;;23.67;76.73;99776.31;4969173;28;20537;-52
2022/08/18 03:31:24;;;;;;;7.77;5.47;;;;;;;23.50;79.09;99775.13;4964573;28;20899;-53
2022/08/18 03:33:55;;;;;;;5.80;5.40;;;;;;;23.29;81.35;99776.03;4973532;28;20447;-53
2022/08/18 03:36:32;;;;;;;5.57;5.27;;;;;;;23.34;83.42;99778.34;4973454;28;20495;-52
2022/08/18 03:39:06;;;;;;;6.03;5.63;;;;;;;23.31;83.08;99774.06;4966347;28;20474;-53
2022/08/18 03:41:32;;;;;;;6.13;5.70;;;;;;;23.10;84.00;99770.56;4967737;28;20814;-53
2022/08/18 03:44:21;;;;;;;8.67;5.53;;;;;;;23.19;85.37;99768.88;4972858;28;20450;-53
2022/08/18 03:46:50;;;;;;;6.97;6.37;;;;;;;22.71;86.55;99772.19;4959904;28;20491;-53
2022/08/18 03:49:19;;;;;;;8.77;7.93;;;;;;;22.64;87.23;99769.16;4973003;28;20467;-52
2022/08/18 03:51:46;;;;;;;12.43;7.70;;;;;;;23.03;84.58;99761.25;4968697;28;20458;-52
2022/08/18 03:54:15;;;;;;;8.00;6.47;;;;;;;23.15;84.34;99764.72;4968034;28;20454;-52
2022/08/18 03:56:43;;;;;;;6.23;5.83;;;;;;;23.24;84.30;99766.59;4976967;28;20454;-53
2022/08/18 03:59:16;;;;;;;8.87;8.10;;;;;;;23.08;85.60;99769.84;4965150;28;21019;-53
2022/08/18 04:01:44;;;;;;;10.57;7.90;;;;;;;22.74;86.27;99769.19;4964813;28;20446;-52
2022/08/18 04:04:15;;;;;;;7.90;7.10;;;;;;;22.67;88.04;99768.88;4963614;28;20459;-53
2022/08/18 04:06:48;;;;;;;7.53;6.90;;;;;;;23.16;84.86;99770.00;4983189;28;20471;-53
2022/08/18 04:09:16;;;;;;;18.43;8.23;;;;;;;22.85;86.11;99765.59;4978680;28;20465;-53
2022/08/18 04:11:44;;;;;;;7.87;6.90;;;;;;;22.96;86.42;99771.78;4966169;28;20461;-53
2022/08/18 04:14:13;;;;;;;8.23;7.70;;;;;;;22.99;85.51;99771.50;4976704;28;20468;-52
2022/08/18 04:16:40;;;;;;;16.43;9.33;;;;;;;22.77;88.11;99775.22;4966943;28;20463;-53
2022/08/18 04:19:08;;;;;;;12.43;8.60;;;;;;;22.52;89.37;99764.81;4973562;28;20482;-53
2022/08/18 04:21:38;;;;;;;14.00;9.00;;;;;;;22.79;87.74;99769.66;4976676;28;20481;-53
2022/08/18 04:24:06;;;;;;;8.17;6.90;;;;;;;22.79;88.63;99777.78;4963483;28;20485;-54
2022/08/18 04:26:36;;;;;;;12.97;8.17;;;;;;;23.07;86.83;99769.97;4976362;28;20497;-53
2022/08/18 04:29:04;;;;;;;9.10;7.63;;;;;;;22.72;87.50;99773.88;4971340;28;20917;-53
2022/08/18 04:31:31;;;;;;;14.73;8.37;;;;;;;22.90;86.61;99771.47;4968363;28;20454;-53
2022/08/18 04:33:59;;;;;;;7.67;6.97;;;;;;;22.67;87.56;99770.75;4976406;28;20447;-53
2022/08/18 04:36:28;;;;;;;10.17;8.40;;;;;;;22.55;87.91;99764.53;4976254;28;20453;-53
2022/08/18 04:38:54;;;;;;;7.70;7.17;;;;;;;22.29;91.42;99776.75;4963116;28;20470;-53
2022/08/18 04:41:26;;;;;;;7.60;7.00;;;;;;;22.06;91.41;99779.53;4976132;28;20450;-54
2022/08/18 04:43:57;;;;;;;8.40;7.43;;;;;;;22.09;94.49;99786.56;4963104;28;20485;-53
2022/08/18 04:46:25;;;;;;;8.40;6.80;;;;;;;22.15;94.89;99789.59;4963022;28;20505;-53
2022/08/18 04:48:57;;;;;;;8.30;7.70;;;;;;;22.14;95.17;99790.59;4975978;28;20470;-53
2022/08/18 04:51:27;;;;;;;7.37;6.70;;;;;;;22.07;95.53;99788.56;4974362;28;20446;-53
2022/08/18 04:54:14;;;;;;;11.17;7.00;;;;;;;22.03;95.81;99787.03;4968009;28;20451;-51
2022/08/18 04:56:41;;;;;;;7.50;6.90;;;;;;;22.04;95.27;99784.19;4975570;28;20446;-54
2022/08/18 04:59:10;;;;;;;10.13;8.03;;;;;;;22.07;95.55;99788.56;4964721;28;20471;-54
2022/08/18 05:01:44;;;;;;;6.67;6.17;;;;;;;22.10;95.72;99793.69;4988806;28;20952;-53
2022/08/18 05:04:13;;;;;;;8.47;7.60;;;;;;;22.05;96.75;99790.47;4962253;28;20451;-53
2022/08/18 05:06:42;;;;;;;7.73;7.03;;;;;;;22.03;96.14;99798.72;4982214;28;20501;-52
2022/08/18 05:09:11;;;;;;;6.57;6.17;;;;;;;22.07;95.65;99802.94;4979058;28;20483;-53
2022/08/18 05:11:38;;;;;;;11.23;8.70;;;;;;;22.10;95.44;99813.50;4964529;28;20450;-52
2022/08/18 05:14:07;;;;;;;5.97;5.50;;;;;;;21.95;98.33;99809.34;4975541;28;20460;-52
2022/08/18 05:16:35;;;;;;;8.70;7.90;;;;;;;21.98;97.78;99814.50;4966783;28;20448;-53
2022/08/18 05:19:16;;;;;;;10.30;8.70;;;;;;;21.98;96.71;99819.91;4972894;28;20478;-54
2022/08/18 05:21:45;;;;;;;7.97;7.47;;;;;;;22.02;97.11;99826.78;4975321;28;20454;-53
2022/08/18 05:24:16;;;;;;;8.37;7.53;;;;;;;22.03;97.27;99825.78;4962454;28;20462;-53
2022/08/18 05:26:44;;;;;;;9.03;7.57;;;;;;;22.09;97.38;99829.88;4975508;28;20549;-53
2022/08/18 05:29:11;;;;;;;9.67;8.07;;;;;;;22.05;95.99;99823.84;4969690;28;20479;-52
2022/08/18 05:31:45;;;;;;;11.20;8.53;;;;;;;22.01;97.37;99818.78;4968757;28;20841;-53
2022/08/18 05:34:12;;;;;;;9.10;8.50;;;;;;;22.06;96.12;99822.84;4975056;28;20450;-53
2022/08/18 05:36:59;;;;;;;8.83;6.80;;;;;;;22.10;93.95;99821.63;4973925;28;20447;-52
2022/08/18 05:39:39;;;;;;;7.47;6.80;;;;;;;22.19;93.81;99811.84;4965561;28;20474;-53
2022/08/18 05:42:17;;;;;;;9.43;7.43;;;;;;;22.28;92.35;99824.63;4973491;28;20462;-53
2022/08/18 05:44:47;;;;;;;7.83;7.23;;;;;;;22.28;92.19;99823.78;4975047;28;20447;-54
2022/08/18 05:47:34;;;;;;;7.40;6.90;;;;;;;22.24;92.39;99833.16;4962675;28;20447;-53
2022/08/18 05:50:09;;;;;;;8.30;7.47;;;;;;;22.36;91.84;99834.84;4961597;28;20814;-53
2022/08/18 05:52:49;;;;;;;8.57;7.83;;;;;;;22.31;93.52;99832.50;4974679;28;20932;-54
2022/08/18 05:58:31;;;;;;;6.73;6.20;;;;;;;22.10;94.38;99834.31;4973234;28;20470;-53
2022/08/18 06:01:07;;;;;;;8.90;8.03;;;;;;;22.36;94.26;99835.69;4987533;28;20804;-53
2022/08/18 06:03:52;;;;;;;14.80;8.53;;;;;;;22.35;95.38;99836.69;4965782;28;20457;-52
2022/08/18 06:06:24;;;;;;;13.47;8.83;;;;;;;22.34;94.86;99834.06;4976436;28;20493;-52
2022/08/18 06:09:09;;;;;;;7.03;6.60;;;;;;;22.38;94.33;99838.25;4980519;28;20476;-53
2022/08/18 06:11:35;;;;;;;8.53;7.57;;;;;;;22.35;93.73;99830.41;4963171;28;20838;-53
2022/08/18 06:14:02;;;;;;;9.97;8.97;;;;;;;22.43;93.62;99841.44;4961140;28;20478;-53
2022/08/18 06:16:35;;;;;;;8.37;7.77;;;;;;;22.56;93.02;99839.41;4973463;28;20451;-54
2022/08/18 06:19:34;;;;;;;7.80;7.17;;;;;;;22.63;93.45;99828.91;4971347;28;20574;-52
2022/08/18 06:22:21;;;;;;;7.97;6.97;;;;;;;22.67;92.97;99828.50;4968306;28;20446;-53
2022/08/18 06:25:33;;;;;;;10.53;9.27;;;;;;;22.71;93.14;99820.94;4973463;28;20453;-53
2022/08/18 06:27:59;;;;;;;7.57;6.27;;;;;;;22.78;93.24;99824.88;4963379;28;20509;-53
2022/08/18 06:30:40;;;;;;;9.87;8.90;;;;;;;22.84;92.60;99826.22;4960891;28;20546;-52
2022/08/18 06:33:19;;;;;;;8.37;7.50;;;;;;;22.76;93.78;99835.00;4974092;28;20453;-53
2022/08/18 06:35:53;;;;;;;13.30;8.23;;;;;;;22.83;95.10;99832.63;4965085;28;20453;-51
2022/08/18 06:38:39;;;;;;;9.83;8.23;;;;;;;22.66;95.68;99829.50;4961068;28;20467;-51
2022/08/18 06:41:20;;;;;;;7.53;6.80;;;;;;;22.94;94.12;99827.13;4974172;28;20454;-51
2022/08/18 06:44:09;;;;;;;8.80;6.57;;;;;;;22.74;95.10;99818.81;4963423;28;20454;-51
2022/08/18 06:47:02;;;;;;;7.33;6.63;;;;;;;22.56;94.27;99823.13;4960766;28;21592;-52
2022/08/18 06:49:58;;;;;;;8.33;7.63;;;;;;;22.59;95.30;99822.00;4972594;28;20468;-52
2022/08/18 06:52:27;;;;;;;7.83;6.63;;;;;;;22.53;95.07;99823.41;4964703;28;20447;-51
2022/08/18 06:54:59;;;;;;;12.10;8.30;;;;;;;22.53;94.31;99830.69;4960869;28;20534;-51
2022/08/18 06:57:36;;;;;;;9.13;7.47;;;;;;;22.67;95.17;99825.78;4973559;28;20833;-52
2022/08/18 07:00:03;;;;;;;8.10;7.47;;;;;;;22.78;94.63;99827.56;4980684;28;20441;-52
2022/08/18 07:02:45;;;;;;;9.00;7.87;;;;;;;22.70;93.95;99833.66;4979543;28;20458;-52
2022/08/18 07:05:21;;;;;;;13.90;8.30;;;;;;;22.76;94.36;99835.00;4963179;28;20496;-52
2022/08/18 07:08:16;;;;;;;11.60;7.17;;;;;;;22.81;93.61;99838.16;4985132;28;20496;-52
2022/08/18 07:10:49;;;;;;;6.97;6.53;;;;;;;23.10;91.87;99835.63;4960363;28;20507;-52
2022/08/18 07:13:26;;;;;;;8.63;7.70;;;;;;;22.97;92.32;99826.84;4973425;28;20574;-52
2022/08/18 07:16:33;;;;;;;7.97;7.37;;;;;;;22.91;91.58;99833.69;4970088;28;20975;-52
2022/08/18 07:19:26;;;;;;;16.03;8.80;;;;;;;22.88;89.85;99836.63;4971618;28;21003;-52
2022/08/18 07:22:19;;;;;;;21.03;7.37;;;;;;;22.88;89.77;99831.22;4973461;28;20446;-52
2022/08/18 07:24:58;;;;;;;12.13;6.37;;;;;;;22.93;89.66;99831.69;4965262;28;20446;-52
2022/08/18 07:27:43;;;;;;;8.27;7.30;;;;;;;23.04;89.22;99839.75;4960381;28;20473;-52
2022/08/18 07:30:35;;;;;;;9.13;8.20;;;;;;;23.09;87.40;99838.47;4977380;28;20939;-52
2022/08/18 07:33:18;;;;;;;9.23;7.57;;;;;;;23.39;84.83;99837.63;4966625;28;20558;-52
2022/08/18 07:35:55;;;;;;;17.70;8.17;;;;;;;23.49;85.30;99841.25;4977490;28;20500;-52
2022/08/18 07:38:30;;;;;;;8.07;7.37;;;;;;;23.32;85.38;99842.75;4964170;28;20474;-51
2022/08/18 07:41:22;;;;;;;6.13;5.73;;;;;;;23.56;83.72;99840.53;4977081;28;20509;-52
2022/08/18 07:43:52;;;;;;;6.03;5.80;;;;;;;24.07;81.48;99853.13;4970832;28;20450;-52
2022/08/18 07:46:44;;;;;;;9.13;7.40;;;;;;;23.75;82.99;99856.06;4970983;28;20489;-52
2022/08/18 07:49:19;;;;;;;8.43;7.00;;;;;;;23.78;83.28;99865.78;4976890;28;20470;-52
2022/08/18 07:51:58;;;;;;;8.63;7.17;;;;;;;23.72;83.04;99863.63;4962814;28;20457;-53
2022/08/18 07:54:30;;;;;;;8.87;7.77;;;;;;;23.54;83.16;99869.66;4976926;28;20446;-53
2022/08/18 07:57:23;;;;;;;8.57;6.63;;;;;;;23.78;82.80;99865.78;4966673;28;20453;-53
2022/08/18 08:00:06;;;;;;;8.87;8.07;;;;;;;23.73;81.25;99871.63;4980124;28;20810;-53
2022/08/18 08:03:03;;;;;;;13.70;8.97;;;;;;;24.43;79.72;99867.94;4977366;28;20957;-53
2022/08/18 08:05:54;;;;;;;9.27;8.33;;;;;;;24.35;78.30;99880.50;4968311;28;20959;-52
2022/08/18 08:08:50;;;;;;;8.33;7.50;;;;;;;24.07;79.04;99880.28;4976319;28;20470;-52
2022/08/18 08:11:29;;;;;;;9.13;8.43;;;;;;;23.91;79.22;99875.41;4970590;28;20482;-53
2022/08/18 08:14:02;;;;;;;14.30;6.37;;;;;;;24.17;78.84;99886.59;4971135;28;20453;-53
2022/08/18 08:16:47;;;;;;;8.10;7.40;;;;;;;24.26;77.67;99890.34;4976823;28;20446;-52
2022/08/18 08:19:28;;;;;;;7.70;7.13;;;;;;;23.89;79.08;99880.13;4963342;28;20484;-53
2022/08/18 08:22:38;;;;;;;11.87;7.93;;;;;;;24.29;78.11;99887.34;4976668;28;20484;-53
2022/08/18 08:25:18;;;;;;;8.90;8.30;;;;;;;24.32;77.22;99888.94;4964295;28;20538;-53
2022/08/18 08:28:17;;;;;;;14.33;6.60;;;;;;;24.58;76.71;99886.53;4967194;28;21030;-52
2022/08/18 08:31:23;;;;;;;7.93;7.23;;;;;;;24.43;77.20;99886.94;4963504;28;20442;-52
2022/08/18 08:34:17;;;;;;;6.53;6.00;;;;;;;24.56;76.86;99880.38;4963869;28;20450;-53
2022/08/18 08:36:46;;;;;;;7.00;6.40;;;;;;;24.83;76.23;99885.09;4974209;28;20456;-51
2022/08/18 08:39:18;;;;;;;7.23;6.40;;;;;;;24.68;75.97;99880.09;4964370;28;20476;-52
2022/08/18 08:41:49;;;;;;;7.60;6.90;;;;;;;24.95;74.98;99876.63;4975957;28;20446;-52
2022/08/18 08:44:28;;;;;;;10.27;8.40;;;;;;;24.69;74.76;99884.53;4965844;28;20546;-52
2022/08/18 08:47:06;;;;;;;9.90;7.77;;;;;;;24.71;75.05;99887.94;4975051;28;20490;-52
2022/08/18 08:50:03;;;;;;;8.43;7.73;;;;;;;24.40;75.81;99884.53;4975129;28;20447;-52
2022/08/18 08:52:43;;;;;;;7.93;6.90;;;;;;;24.62;75.72;99885.22;4968167;28;20472;-52
2022/08/18 08:55:16;;;;;;;7.40;6.83;;;;;;;24.85;74.52;99883.06;4963530;28;20446;-52
2022/08/18 08:57:57;;;;;;;5.73;5.33;;;;;;;24.74;74.92;99881.34;4962787;28;20471;-52
2022/08/18 09:00:24;;;;;;;6.60;6.10;;;;;;;24.91;75.24;99893.34;4985048;28;20935;-52
2022/08/18 09:02:58;;;;;;;7.33;6.83;;;;;;;24.69;74.07;99897.25;4975806;28;20455;-52
2022/08/18 09:05:40;;;;;;;14.37;6.80;;;;;;;24.59;74.40;99899.09;4967038;28;20453;-52
2022/08/18 09:08:25;;;;;;;8.80;7.20;;;;;;;24.66;74.39;99894.81;4987180;28;20482;-52
2022/08/18 09:11:13;;;;;;;7.50;6.60;;;;;;;24.61;74.23;99899.81;4962152;28;20451;-51
2022/08/18 09:14:07;;;;;;;6.93;6.30;;;;;;;24.75;73.46;99897.53;4975419;28;20963;-52
2022/08/18 09:16:48;;;;;;;6.03;5.63;;;;;;;24.74;74.15;99906.69;4964869;28;20454;-52
2022/08/18 09:19:34;;;;;;;8.87;8.07;;;;;;;24.53;73.81;99911.41;4962399;28;20496;-52
2022/08/18 09:22:28;;;;;;;13.47;7.40;;;;;;;24.43;75.16;99910.56;4975150;28;21024;-53
2022/08/18 09:24:56;;;;;;;9.70;6.00;;;;;;;24.58;74.62;99900.97;4964966;28;20542;-52
2022/08/18 09:27:34;;;;;;;6.70;6.13;;;;;;;24.68;74.61;99898.25;4972493;28;20486;-52
2022/08/18 09:30:46;;;;;;;15.50;6.50;;;;;;;24.72;74.33;99908.69;4973403;28;20521;-52
2022/08/18 09:33:39;;;;;;;6.30;5.80;;;;;;;24.50;75.37;99901.66;4967604;28;20454;-52
2022/08/18 09:36:27;;;;;;;12.83;6.10;;;;;;;24.55;75.33;99903.13;4967918;28;20451;-52
2022/08/18 09:42:45;;;;;;;7.10;6.50;;;;;;;24.62;74.78;99904.25;4953339;29;21014;-53
2022/08/18 09:45:32;;;;;;;15.33;7.90;;;;;;;24.56;75.46;99904.84;4968308;28;20455;-52
2022/08/18 09:48:05;;;;;;;8.13;7.30;;;;;;;24.65;74.74;99909.41;4968768;28;20560;-53
2022/08/18 09:50:51;;;;;;;6.93;6.50;;;;;;;24.57;75.04;99907.41;4974902;28;20813;-52
2022/08/18 09:53:52;;;;;;;21.17;7.80;;;;;;;24.55;74.82;99908.56;4961837;28;20963;-52
2022/08/18 09:56:50;;;;;;;8.07;6.30;;;;;;;24.39;75.73;99904.50;4974623;28;20453;-52
2022/08/18 09:59:32;;;;;;;10.93;6.27;;;;;;;24.57;75.86;99907.41;4963002;28;20466;-52
2022/08/18 10:02:05;;;;;;;7.63;6.50;;;;;;;24.64;75.76;99915.84;4984650;28;20461;-52
2022/08/18 10:04:49;;;;;;;11.70;7.80;;;;;;;24.56;76.71;99910.28;4961477;28;20462;-52
2022/08/18 10:07:18;;;;;;;10.23;7.27;;;;;;;24.97;75.17;99909.13;4985692;28;21079;-52
2022/08/18 10:09:59;;;;;;;13.40;7.67;;;;;;;25.01;75.02;99914.13;4962061;28;20450;-52
2022/08/18 10:12:36;;;;;;;12.67;8.27;;;;;;;24.67;76.88;99911.00;4961447;28;20545;-52
2022/08/18 10:15:15;;;;;;;10.27;8.60;;;;;;;24.98;78.23;99910.81;4974384;28;20978;-52
2022/08/18 10:18:13;;;;;;;8.53;6.97;;;;;;;24.96;78.42;99901.97;4974180;28;20848;-52
2022/08/18 10:20:52;;;;;;;8.97;8.13;;;;;;;24.65;79.02;99904.81;4961955;28;20453;-49
2022/08/18 10:24:01;;;;;;;8.70;7.13;;;;;;;24.74;78.66;99900.38;4974284;28;20453;-50
2022/08/18 10:26:48;;;;;;;7.30;6.60;;;;;;;24.78;77.61;99889.06;4967552;28;20574;-50
2022/08/18 10:29:26;;;;;;;8.87;8.03;;;;;;;24.73;78.20;99885.09;4962429;28;20545;-51
2022/08/18 10:31:55;;;;;;;11.80;8.70;;;;;;;24.96;77.08;99881.06;4973928;28;20458;-50
2022/08/18 10:34:48;;;;;;;9.13;8.30;;;;;;;24.60;76.82;99879.09;4964280;28;20614;-49
2022/08/18 10:37:41;;;;;;;23.43;7.20;;;;;;;24.88;76.13;99874.63;4974303;28;20466;-50
2022/08/18 10:40:08;;;;;;;12.93;6.20;;;;;;;25.23;74.95;99872.16;4961233;28;20458;-51
2022/08/18 10:42:52;;;;;;;7.80;7.00;;;;;;;25.41;74.43;99877.66;4973987;28;20458;-50
2022/08/18 10:45:29;;;;;;;7.07;6.43;;;;;;;25.56;73.30;99870.72;4968333;28;20479;-51
2022/08/18 10:48:14;;;;;;;8.63;7.40;;;;;;;25.39;72.71;99866.94;4967993;28;20846;-51
2022/08/18 10:51:21;;;;;;;7.70;7.07;;;;;;;25.63;72.23;99860.97;4973764;28;20446;-52
2022/08/18 10:54:18;;;;;;;11.50;7.00;;;;;;;26.18;70.63;99863.69;4962258;28;20541;-51
2022/08/18 10:57:04;;;;;;;7.60;6.80;;;;;;;26.45;69.09;99870.06;4960677;28;20962;-51
2022/08/18 10:59:31;;;;;;;6.47;5.97;;;;;;;26.31;67.87;99865.13;4963223;28;20449;-51
2022/08/18 11:02:57;;;;;;;8.40;6.87;;;;;;;26.30;67.38;99864.28;4981400;28;20425;-50
2022/08/18 11:05:44;;;;;;;11.90;7.97;;;;;;;26.04;67.63;99860.59;4967548;28;20450;-50
2022/08/18 11:08:18;;;;;;;6.27;5.60;;;;;;;26.41;67.02;99864.09;4985981;28;20510;-50
2022/08/18 11:10:49;;;;;;;6.73;5.07;;;;;;;26.56;66.17;99865.25;4960375;28;20483;-50
2022/08/18 11:13:36;;;;;;;7.00;6.40;;;;;;;25.89;67.26;99869.28;4973701;28;20451;-51
2022/08/18 11:16:13;;;;;;;5.23;4.87;;;;;;;25.73;68.64;99873.69;4969207;28;20546;-51
2022/08/18 11:18:47;;;;;;;6.40;5.97;;;;;;;25.98;67.83;99876.56;4966188;28;20865;-51
2022/08/18 11:21:38;;;;;;;6.00;5.60;;;;;;;25.88;67.03;99874.88;4973661;28;20450;-50
2022/08/18 11:24:36;;;;;;;5.40;4.90;;;;;;;26.04;66.12;99856.03;4969472;28;20463;-50
2022/08/18 11:27:28;;;;;;;5.40;4.67;;;;;;;25.95;66.30;99829.69;4970838;28;21209;-50
2022/08/18 11:30:00;;;;;;;10.47;5.50;;;;;;;25.87;66.16;99797.78;4973569;28;20446;-50
2022/08/18 11:32:31;;;;;;;6.50;5.90;;;;;;;26.42;65.75;99777.72;4960442;28;20455;-50
2022/08/18 11:35:06;;;;;;;13.67;5.53;;;;;;;26.73;63.88;99799.97;4973643;28;20429;-51
2022/08/18 11:37:51;;;;;;;5.33;4.93;;;;;;;26.66;63.82;99801.59;4961274;28;20466;-51
2022/08/18 11:40:25;;;;;;;5.47;4.97;;;;;;;26.55;64.27;99810.88;4969791;28;20447;-51
2022/08/18 11:43:16;;;;;;;4.53;4.33;;;;;;;26.74;63.67;99815.31;4967188;28;20450;-50
2022/08/18 11:45:56;;;;;;;8.50;6.90;;;;;;;26.36;64.46;99822.81;4973526;28;20453;-50
2022/08/18 11:48:28;;;;;;;6.67;6.13;;;;;;;26.91;62.75;99830.75;4959992;28;20497;-50
2022/08/18 11:51:16;;;;;;;5.53;5.03;;;;;;;27.09;62.68;99817.09;4973068;28;20951;-50
2022/08/18 11:53:48;;;;;;;6.30;5.23;;;;;;;27.00;61.91;99815.28;4966395;28;20462;-50
2022/08/18 11:56:34;;;;;;;5.23;4.83;;;;;;;26.73;63.47;99819.06;4968790;28;20442;-51
2022/08/18 11:59:05;;;;;;;6.93;6.23;;;;;;;26.48;63.57;99824.31;4973540;28;20601;-50
2022/08/18 12:01:33;;;;;;;4.93;4.73;;;;;;;27.13;61.88;99818.47;4988080;28;20452;-50
2022/08/18 12:04:15;;;;;;;5.57;5.07;;;;;;;26.77;62.29;99821.28;4960406;28;20417;-50
2022/08/18 12:06:58;;;;;;;6.50;6.10;;;;;;;26.42;62.48;99816.72;4979890;28;20581;-50
2022/08/18 12:09:31;;;;;;;5.80;4.97;;;;;;;26.77;61.76;99814.97;4971879;28;20971;-51
2022/08/18 12:12:26;;;;;;;4.53;4.30;;;;;;;26.78;62.13;99813.97;4967244;28;20443;-51
2022/08/18 12:15:12;;;;;;;4.63;4.33;;;;;;;26.92;59.75;99807.94;4975553;28;20452;-51
2022/08/18 12:17:50;;;;;;;4.87;4.50;;;;;;;27.02;58.78;99813.31;4970651;28;20483;-50
2022/08/18 12:20:20;;;;;;;4.03;3.73;;;;;;;26.77;59.25;99810.38;4969961;28;20478;-50
2022/08/18 12:22:48;;;;;;;6.90;5.30;;;;;;;26.85;59.19;99810.41;4963869;28;20429;-51
2022/08/18 12:25:17;;;;;;;4.37;3.97;;;;;;;27.13;58.35;99807.56;4963405;28;20459;-51
2022/08/18 12:27:51;;;;;;;4.17;3.70;;;;;;;26.75;59.15;99792.47;4976367;28;20497;-50